createdAt,value
2018-03-21T00:00:22.178Z,94389.94
2018-03-21T00:02:50.570Z,94384.08
2018-03-21T00:05:18.952Z,94368.47
2018-03-21T00:07:47.380Z,94383.69
2018-03-21T00:10:15.760Z,94382.63
2018-03-21T00:12:44.270Z,94387.02
2018-03-21T00:15:12.644Z,94380.10
2018-03-21T00:17:41.073Z,94377.07
2018-03-21T00:34:58.793Z,94344.72
2018-03-21T00:37:27.217Z,94337.19
2018-03-21T00:39:55.606Z,94324.98
2018-03-21T00:42:24.020Z,94324.91
2018-03-21T00:44:52.429Z,94326.84
2018-03-21T00:47:20.808Z,94324.14
2018-03-21T00:49:49.168Z,94322.69
2018-03-21T00:52:17.578Z,94318.98
2018-03-21T00:54:45.973Z,94319.38
2018-03-21T00:57:14.448Z,94316.96
2018-03-21T00:59:42.858Z,94317.67
2018-03-21T01:02:11.232Z,94317.13
2018-03-21T01:04:39.685Z,94317.25
2018-03-21T01:07:08.105Z,94306.57
2018-03-21T01:09:36.528Z,94308.78
2018-03-21T01:12:04.904Z,94302.98
2018-03-21T01:14:33.376Z,94308.03
2018-03-21T01:17:01.747Z,94303.96
2018-03-21T01:19:30.113Z,94290.09
2018-03-21T01:21:58.516Z,94311.07
2018-03-21T01:24:26.903Z,94309.46
2018-03-21T01:26:55.326Z,94295.70
2018-03-21T01:29:23.717Z,94303.16
2018-03-21T01:31:52.122Z,94303.45
2018-03-21T01:34:20.496Z,94322.51
2018-03-21T01:36:48.946Z,94322.45
2018-03-21T01:39:17.393Z,94332.80
2018-03-21T01:41:45.830Z,94328.17
2018-03-21T01:44:14.255Z,94337.42
2018-03-21T01:46:42.704Z,94341.20
2018-03-21T01:49:11.140Z,94340.59
2018-03-21T01:51:39.538Z,94346.47
2018-03-21T01:54:07.911Z,94344.64
2018-03-21T01:56:36.324Z,94346.13
2018-03-21T01:59:04.772Z,94357.03
2018-03-21T02:01:33.208Z,94354.95
2018-03-21T02:04:01.600Z,94345.36
2018-03-21T02:06:30.014Z,94258.84
2018-03-21T02:08:58.361Z,94336.94
2018-03-21T02:11:26.794Z,94340.21
2018-03-21T02:13:55.240Z,94342.49
2018-03-21T02:16:23.649Z,94328.18
2018-03-21T02:18:52.051Z,94332.20
2018-03-21T02:21:20.484Z,94325.48
2018-03-21T02:23:49.272Z,94314.79
2018-03-21T02:26:17.739Z,94309.97
2018-03-21T02:28:46.141Z,94304.51
2018-03-21T02:31:14.525Z,94306.59
2018-03-21T02:33:42.992Z,94308.73
2018-03-21T02:36:11.374Z,94308.48
2018-03-21T02:38:39.802Z,94313.59
2018-03-21T02:41:08.202Z,94304.20
2018-03-21T02:43:36.593Z,94302.58
2018-03-21T02:46:04.959Z,94314.31
2018-03-21T02:48:33.371Z,94310.67
2018-03-21T02:51:01.737Z,94305.13
2018-03-21T02:53:30.150Z,94289.52
2018-03-21T02:55:58.529Z,94286.73
2018-03-21T02:58:26.938Z,94280.86
2018-03-21T03:00:55.386Z,94270.70
2018-03-21T03:03:23.785Z,94275.99
2018-03-21T03:05:52.242Z,94276.95
2018-03-21T03:08:20.984Z,94273.00
2018-03-21T03:10:49.444Z,94279.20
2018-03-21T03:13:17.838Z,94276.67
2018-03-21T03:15:46.213Z,94270.94
2018-03-21T03:18:14.652Z,94264.58
2018-03-21T03:20:43.030Z,94264.13
2018-03-21T03:23:11.424Z,94280.19
2018-03-21T03:25:39.828Z,94266.86
2018-03-21T03:28:08.272Z,94260.61
2018-03-21T03:30:36.637Z,94247.07
2018-03-21T03:33:05.009Z,94265.58
2018-03-21T03:35:33.432Z,94245.05
2018-03-21T03:38:01.861Z,94262.68
2018-03-21T03:40:30.236Z,94248.30
2018-03-21T03:42:58.654Z,94246.31
2018-03-21T03:45:27.068Z,94252.23
2018-03-21T03:47:55.480Z,94234.93
2018-03-21T03:50:23.861Z,94229.80
2018-03-21T03:52:52.254Z,94237.48
2018-03-21T03:55:20.653Z,94235.55
2018-03-21T03:57:49.044Z,94234.03
2018-03-21T04:00:17.456Z,94231.72
2018-03-21T04:02:45.835Z,94211.57
2018-03-21T04:05:14.241Z,94233.58
2018-03-21T04:07:42.681Z,94232.54
2018-03-21T04:10:11.136Z,94229.47
2018-03-21T04:12:39.582Z,94244.18
2018-03-21T04:15:07.960Z,94225.47
2018-03-21T04:17:36.405Z,94220.36
2018-03-21T04:20:04.893Z,94240.98
2018-03-21T04:22:33.269Z,94236.22
2018-03-21T04:25:01.685Z,94252.47
2018-03-21T04:27:30.069Z,94249.79
2018-03-21T04:29:58.472Z,94248.50
2018-03-21T04:32:26.846Z,94243.96
2018-03-21T04:34:55.282Z,94247.85
2018-03-21T04:37:23.689Z,94253.25
2018-03-21T04:39:52.077Z,94260.34
2018-03-21T04:42:20.516Z,94249.27
2018-03-21T04:44:48.957Z,94248.08
2018-03-21T04:47:17.389Z,94267.62
2018-03-21T04:49:45.906Z,94268.55
2018-03-21T04:52:14.389Z,94271.84
2018-03-21T04:54:42.855Z,94271.07
2018-03-21T04:57:11.269Z,94264.77
2018-03-21T04:59:39.689Z,94290.42
2018-03-21T05:02:08.132Z,94294.70
2018-03-21T05:04:36.606Z,94293.94
2018-03-21T05:07:05.053Z,94304.09
2018-03-21T05:09:33.517Z,94309.42
2018-03-21T05:12:01.901Z,94288.45
2018-03-21T05:14:30.299Z,94307.40
2018-03-21T05:16:58.716Z,94306.66
2018-03-21T05:19:27.083Z,94311.39
2018-03-21T05:21:55.538Z,94319.55
2018-03-21T05:24:23.943Z,94332.49
2018-03-21T05:26:52.363Z,94306.09
2018-03-21T05:29:20.797Z,94306.83
2018-03-21T05:31:49.313Z,94300.33
2018-03-21T05:34:17.700Z,94316.00
2018-03-21T05:36:46.169Z,94309.96
2018-03-21T05:39:14.620Z,94308.63
2018-03-21T05:41:43.085Z,94319.55
2018-03-21T05:44:11.612Z,94317.28
2018-03-21T05:46:40.017Z,94318.45
2018-03-21T05:49:08.461Z,94327.80
2018-03-21T05:51:37.848Z,94330.16
2018-03-21T05:54:06.316Z,94322.89
2018-03-21T05:56:34.916Z,94326.70
2018-03-21T05:59:03.463Z,94295.01
2018-03-21T06:01:31.893Z,94318.05
2018-03-21T06:04:00.322Z,94327.72
2018-03-21T06:06:28.681Z,94329.89
2018-03-21T06:08:57.106Z,94324.21
2018-03-21T06:11:25.481Z,94320.75
2018-03-21T06:13:53.844Z,94339.10
2018-03-21T06:16:22.325Z,94343.10
2018-03-21T06:18:50.746Z,94330.37
2018-03-21T06:21:19.169Z,94338.67
2018-03-21T06:23:47.815Z,94340.73
2018-03-21T06:26:16.194Z,94334.65
2018-03-21T06:28:44.769Z,94334.55
2018-03-21T06:31:13.205Z,94332.83
2018-03-21T06:33:41.940Z,94345.78
2018-03-21T06:36:10.384Z,94341.20
2018-03-21T06:38:38.869Z,94339.27
2018-03-21T06:41:07.489Z,94344.33
2018-03-21T06:43:35.908Z,94350.09
2018-03-21T06:46:04.290Z,94343.78
2018-03-21T06:48:32.724Z,94338.91
2018-03-21T06:51:01.130Z,94330.35
2018-03-21T06:53:29.760Z,94315.79
2018-03-21T06:55:58.160Z,94305.62
2018-03-21T06:58:26.633Z,94302.28
2018-03-21T07:00:55.066Z,94307.80
2018-03-21T07:03:23.478Z,94295.98
2018-03-21T07:05:51.904Z,94288.50
2018-03-21T07:08:20.289Z,94294.89
2018-03-21T07:10:48.739Z,94310.17
2018-03-21T07:13:17.209Z,94326.89
2018-03-21T07:15:57.351Z,94337.78
2018-03-21T07:18:25.756Z,94330.97
2018-03-21T07:20:54.174Z,94346.13
2018-03-21T07:23:22.628Z,94342.23
2018-03-21T07:25:51.065Z,94339.59
2018-03-21T07:28:19.468Z,94345.00
2018-03-21T07:30:47.888Z,94355.97
2018-03-21T07:33:16.298Z,94345.37
2018-03-21T07:35:44.700Z,94329.34
2018-03-21T07:38:13.069Z,94335.44
2018-03-21T07:40:41.503Z,94334.08
2018-03-21T07:43:09.913Z,94334.84
2018-03-21T07:45:38.276Z,94329.41
2018-03-21T07:48:06.732Z,94319.02
2018-03-21T07:50:35.192Z,94289.03
2018-03-21T07:53:03.561Z,94284.61
2018-03-21T07:55:31.987Z,94284.16
2018-03-21T07:58:00.371Z,94293.69
2018-03-21T08:00:28.817Z,94289.52
2018-03-21T08:02:57.321Z,94299.16
2018-03-21T08:05:25.780Z,94289.22
2018-03-21T08:07:54.171Z,94286.22
2018-03-21T08:10:22.540Z,94287.34
2018-03-21T08:12:50.941Z,94289.38
2018-03-21T08:15:19.351Z,94297.44
2018-03-21T08:17:47.725Z,94280.00
2018-03-21T08:20:16.156Z,94311.07
2018-03-21T08:22:44.521Z,94321.84
2018-03-21T08:25:12.965Z,94323.48
2018-03-21T08:27:41.392Z,94299.89
2018-03-21T08:30:09.812Z,94313.42
2018-03-21T08:32:38.230Z,94299.16
2018-03-21T08:35:06.652Z,94295.38
2018-03-21T08:37:35.064Z,94308.77
2018-03-21T08:40:03.460Z,94309.03
2018-03-21T08:42:31.881Z,94307.28
2018-03-21T08:45:00.524Z,94312.72
2018-03-21T08:47:28.929Z,94312.86
2018-03-21T08:49:57.372Z,94311.19
2018-03-21T08:52:25.740Z,94307.70
2018-03-21T08:54:54.108Z,94297.56
2018-03-21T08:57:22.544Z,94295.72
2018-03-21T08:59:50.944Z,94286.30
2018-03-21T09:02:19.324Z,94276.60
2018-03-21T09:04:47.738Z,94251.84
2018-03-21T09:07:16.113Z,94269.47
2018-03-21T09:09:44.661Z,94262.09
2018-03-21T09:12:13.114Z,94284.27
2018-03-21T09:14:41.496Z,94285.94
2018-03-21T09:17:09.873Z,94287.61
2018-03-21T09:19:38.309Z,94290.64
2018-03-21T09:22:06.727Z,94296.48
2018-03-21T09:24:35.149Z,94307.83
2018-03-21T09:27:03.557Z,94304.95
2018-03-21T09:29:32.065Z,94303.30
2018-03-21T09:32:00.470Z,94320.50
2018-03-21T09:34:28.924Z,94314.34
2018-03-21T09:36:57.337Z,94300.41
2018-03-21T09:39:25.705Z,94321.89
2018-03-21T09:41:54.077Z,94306.83
2018-03-21T09:44:22.476Z,94282.94
2018-03-21T09:46:50.841Z,94297.06
2018-03-21T09:49:19.193Z,94285.23
2018-03-21T09:51:47.597Z,94274.94
2018-03-21T09:54:16.072Z,94260.98
2018-03-21T09:56:44.580Z,94229.67
2018-03-21T09:59:12.963Z,94191.30
2018-03-21T10:01:41.399Z,94178.16
2018-03-21T10:04:09.784Z,94207.59
2018-03-21T10:06:38.204Z,94251.73
2018-03-21T10:09:06.660Z,94249.73
2018-03-21T10:11:35.118Z,94245.36
2018-03-21T10:14:03.527Z,94223.09
2018-03-21T10:16:31.936Z,94248.98
2018-03-21T10:19:00.350Z,94256.75
2018-03-21T10:21:28.936Z,94251.30
2018-03-21T10:23:57.380Z,94250.86
2018-03-21T10:26:25.744Z,94248.35
2018-03-21T10:28:54.206Z,94246.31
2018-03-21T10:31:22.576Z,94235.05
2018-03-21T10:33:50.976Z,94220.50
2018-03-21T10:36:19.416Z,94220.16
2018-03-21T10:38:47.829Z,94212.01
2018-03-21T10:41:16.245Z,94220.17
2018-03-21T10:43:44.660Z,94255.66
2018-03-21T10:46:13.032Z,94243.99
2018-03-21T10:48:41.388Z,94251.84
2018-03-21T10:51:09.795Z,94252.55
2018-03-21T10:53:38.252Z,94242.33
2018-03-21T10:56:06.629Z,94246.14
2018-03-21T10:58:35.060Z,94235.84
2018-03-21T11:04:02.948Z,94235.00
2018-03-21T11:06:31.480Z,94237.72
2018-03-21T11:08:59.808Z,94230.23
2018-03-21T11:11:28.217Z,94223.53
2018-03-21T11:13:56.584Z,94225.48
2018-03-21T11:16:25.148Z,94245.27
2018-03-21T11:18:53.568Z,94248.02
2018-03-21T11:21:22.088Z,94254.21
2018-03-21T11:23:50.469Z,94257.27
2018-03-21T11:26:18.916Z,94256.62
2018-03-21T11:28:48.351Z,94262.42
2018-03-21T11:31:17.128Z,94274.03
2018-03-21T11:33:45.838Z,94252.05
2018-03-21T11:36:14.600Z,94275.16
2018-03-21T11:38:43.056Z,94267.66
2018-03-21T11:43:47.348Z,94288.22
2018-03-21T11:46:15.884Z,94278.55
2018-03-21T11:48:44.321Z,94269.59
2018-03-21T11:51:12.730Z,94266.25
2018-03-21T11:53:41.083Z,94266.56
2018-03-21T11:56:09.544Z,94270.63
2018-03-21T11:58:37.921Z,94249.91
2018-03-21T12:01:06.342Z,94242.40
2018-03-21T12:03:34.934Z,94257.94
2018-03-21T12:06:03.403Z,94265.84
2018-03-21T12:08:31.826Z,94258.46
2018-03-21T12:11:00.241Z,94222.45
2018-03-21T12:13:28.632Z,94239.33
2018-03-21T12:15:56.997Z,94244.38
2018-03-21T12:18:25.640Z,94234.05
2018-03-21T12:20:54.010Z,94228.31
2018-03-21T12:23:23.073Z,94237.68
2018-03-21T12:25:51.544Z,94233.11
2018-03-21T12:28:19.977Z,94245.73
2018-03-21T12:30:48.416Z,94255.12
2018-03-21T12:33:16.781Z,94265.08
2018-03-21T12:35:45.152Z,94281.68
2018-03-21T12:38:13.586Z,94302.49
2018-03-21T12:40:42.233Z,94315.21
2018-03-21T12:43:10.637Z,94318.89
2018-03-21T12:45:39.044Z,94325.57
2018-03-21T12:48:07.409Z,94340.89
2018-03-21T12:50:35.816Z,94325.85
2018-03-21T12:53:04.230Z,94322.50
2018-03-21T12:55:32.654Z,94349.52
2018-03-21T12:58:01.030Z,94370.45
2018-03-21T13:00:29.488Z,94368.26
2018-03-21T13:02:57.873Z,94366.55
2018-03-21T13:05:26.286Z,94393.51
2018-03-21T13:07:54.656Z,94353.41
2018-03-21T13:10:23.080Z,94404.66
2018-03-21T13:12:51.504Z,94364.24
2018-03-21T13:15:19.904Z,94424.60
2018-03-21T13:17:48.317Z,94434.00
2018-03-21T13:20:16.696Z,94426.90
2018-03-21T13:22:45.132Z,94431.52
2018-03-21T13:25:13.536Z,94430.72
2018-03-21T13:27:41.908Z,94482.00
2018-03-21T13:30:10.371Z,94473.55
2018-03-21T13:32:38.784Z,94478.63
2018-03-21T13:35:07.148Z,94488.55
2018-03-21T13:37:35.551Z,94483.66
2018-03-21T13:40:03.964Z,94480.20
2018-03-21T13:42:32.353Z,94485.25
2018-03-21T13:45:00.782Z,94468.58
2018-03-21T13:47:29.207Z,94464.66
2018-03-21T13:49:57.628Z,94470.67
2018-03-21T13:52:26.000Z,94480.11
2018-03-21T13:54:54.447Z,94473.03
2018-03-21T13:57:22.837Z,94490.80
2018-03-21T13:59:51.249Z,94511.36
2018-03-21T14:02:19.624Z,94494.88
2018-03-21T14:04:48.207Z,94504.11
2018-03-21T14:07:16.588Z,94497.14
2018-03-21T14:09:45.168Z,94499.47
2018-03-21T14:12:13.596Z,94502.17
2018-03-21T14:14:41.968Z,94512.10
2018-03-21T14:17:10.393Z,94511.71
2018-03-21T14:19:38.797Z,94486.66
2018-03-21T14:22:07.241Z,94525.45
2018-03-21T14:24:35.653Z,94512.95
2018-03-21T14:27:04.129Z,94525.77
2018-03-21T14:29:32.553Z,94537.27
2018-03-21T14:32:00.957Z,94524.59
2018-03-21T14:34:29.365Z,94530.55
2018-03-21T14:36:57.740Z,94525.45
2018-03-21T14:39:26.171Z,94525.38
2018-03-21T14:41:54.581Z,94551.45
2018-03-21T14:44:22.952Z,94532.75
2018-03-21T14:46:51.615Z,94540.28
2018-03-21T14:49:20.013Z,94540.48
2018-03-21T14:51:48.379Z,94557.52
2018-03-21T14:54:16.800Z,94565.13
2018-03-21T14:56:45.199Z,94553.37
2018-03-21T14:59:13.601Z,94572.87
2018-03-21T15:01:42.011Z,94552.98
2018-03-21T15:04:10.386Z,94570.75
2018-03-21T15:06:38.821Z,94587.16
2018-03-21T15:09:07.208Z,94571.92
2018-03-21T15:11:36.349Z,94596.05
2018-03-21T15:14:04.768Z,94582.08
2018-03-21T15:16:33.156Z,94569.98
2018-03-21T15:19:01.586Z,94597.18
2018-03-21T15:21:30.045Z,94598.38
2018-03-21T15:23:58.576Z,94601.59
2018-03-21T15:26:27.005Z,94616.89
2018-03-21T15:28:55.372Z,94608.81
2018-03-21T15:31:23.753Z,94617.67
2018-03-21T15:33:52.185Z,94590.17
2018-03-21T15:36:20.680Z,94637.63
2018-03-21T15:38:49.179Z,94636.05
2018-03-21T15:41:17.725Z,94678.36
2018-03-21T15:43:46.149Z,94643.17
2018-03-21T15:46:14.521Z,94649.20
2018-03-21T15:48:42.898Z,94671.55
2018-03-21T15:51:11.440Z,94693.03
2018-03-21T15:53:39.773Z,94686.53
2018-03-21T15:56:08.202Z,94694.44
2018-03-21T15:58:36.672Z,94677.30
2018-03-21T16:01:05.076Z,94677.92
2018-03-21T16:03:33.457Z,94688.86
2018-03-21T16:06:01.886Z,94664.00
2018-03-21T16:08:30.281Z,94689.09
2018-03-21T16:10:58.673Z,94694.47
2018-03-21T16:13:27.081Z,94695.55
2018-03-21T16:15:55.494Z,94700.48
2018-03-21T16:18:23.881Z,94710.30
2018-03-21T16:20:52.290Z,94708.93
2018-03-21T16:23:20.704Z,94720.27
2018-03-21T16:25:49.215Z,94721.59
2018-03-21T16:28:17.580Z,94723.67
2018-03-21T16:30:46.077Z,94722.16
2018-03-21T16:33:14.597Z,94721.00
2018-03-21T16:35:43.133Z,94708.26
2018-03-21T16:38:11.602Z,94738.62
2018-03-21T16:40:39.960Z,94724.31
2018-03-21T16:43:08.406Z,94714.45
2018-03-21T16:45:36.802Z,94727.91
2018-03-21T16:48:05.228Z,94727.18
2018-03-21T16:50:33.758Z,94743.45
2018-03-21T16:53:02.180Z,94753.98
2018-03-21T16:55:30.581Z,94740.58
2018-03-21T16:57:59.543Z,94755.40
2018-03-21T17:00:27.981Z,94778.26
2018-03-21T17:02:56.453Z,94766.47
2018-03-21T17:05:24.897Z,94760.06
2018-03-21T17:07:53.261Z,94797.30
2018-03-21T17:10:21.756Z,94814.53
2018-03-21T17:12:50.164Z,94796.53
2018-03-21T17:15:18.640Z,94792.30
2018-03-21T17:17:47.000Z,94805.48
2018-03-21T17:20:15.368Z,94800.71
2018-03-21T17:22:43.797Z,94804.52
2018-03-21T17:25:12.184Z,94801.55
2018-03-21T17:27:40.581Z,94808.37
2018-03-21T17:30:09.045Z,94822.09
2018-03-21T17:32:38.162Z,94825.81
2018-03-21T17:35:06.627Z,94830.81
2018-03-21T17:37:35.468Z,94829.48
2018-03-21T17:40:04.013Z,94827.53
2018-03-21T17:42:32.511Z,94826.64
2018-03-21T17:45:00.892Z,94838.93
2018-03-21T17:47:29.334Z,94843.37
2018-03-21T17:49:58.150Z,94867.52
2018-03-21T17:52:26.657Z,94867.45
2018-03-21T17:54:56.076Z,94874.11
2018-03-21T17:57:25.714Z,94857.08
2018-03-21T17:59:54.928Z,94863.37
2018-03-21T18:02:24.137Z,94877.58
2018-03-21T18:04:52.591Z,94866.55
2018-03-21T18:07:21.685Z,94870.66
2018-03-21T18:09:50.220Z,94899.39
2018-03-21T18:12:18.581Z,94880.16
2018-03-21T18:14:46.995Z,94875.27
2018-03-21T18:17:15.408Z,94883.72
2018-03-21T18:19:43.900Z,94886.13
2018-03-21T18:22:12.324Z,94889.08
2018-03-21T18:24:40.712Z,94892.77
2018-03-21T18:27:09.169Z,94900.83
2018-03-21T18:29:37.561Z,94907.38
2018-03-21T18:32:06.017Z,94927.16
2018-03-21T18:34:34.448Z,94908.08
2018-03-21T18:37:02.875Z,94916.55
2018-03-21T18:39:31.440Z,94931.11
2018-03-21T18:41:59.808Z,94935.52
2018-03-21T18:44:28.224Z,94949.98
2018-03-21T18:46:57.040Z,94952.03
2018-03-21T18:49:25.600Z,94953.84
2018-03-21T18:51:53.965Z,94933.83
2018-03-21T18:54:22.393Z,94943.53
2018-03-21T18:56:50.830Z,94950.84
2018-03-21T18:59:19.469Z,94943.70
2018-03-21T19:01:48.117Z,94951.43
2018-03-21T19:04:16.515Z,94927.42
2018-03-21T19:06:44.894Z,94949.69
2018-03-21T19:09:13.441Z,94957.48
2018-03-21T19:11:41.841Z,94954.45
2018-03-21T19:14:10.279Z,94951.96
2018-03-21T19:16:38.651Z,94959.75
2018-03-21T19:19:07.096Z,94961.43
2018-03-21T19:21:35.536Z,94954.58
2018-03-21T19:24:04.076Z,94967.42
2018-03-21T19:26:32.445Z,94966.86
2018-03-21T19:29:00.866Z,94965.63
2018-03-21T19:31:29.244Z,94978.31
2018-03-21T19:33:57.691Z,94948.09
2018-03-21T19:36:26.045Z,94976.50
2018-03-21T19:38:54.493Z,94995.63
2018-03-21T19:41:22.962Z,95002.30
2018-03-21T19:43:51.445Z,95012.06
2018-03-21T19:46:19.853Z,95003.67
2018-03-21T19:48:48.249Z,95024.06
2018-03-21T19:51:16.701Z,95007.97
2018-03-21T19:53:45.140Z,94993.39
2018-03-21T19:56:13.518Z,95015.19
2018-03-21T19:58:41.929Z,95021.09
2018-03-21T20:01:10.349Z,95026.92
2018-03-21T20:03:38.737Z,95033.27
2018-03-21T20:06:07.157Z,95027.02
2018-03-21T20:08:35.596Z,95041.68
2018-03-21T20:11:04.020Z,95048.78
2018-03-21T20:13:32.459Z,95039.75
2018-03-21T20:16:00.925Z,95032.47
2018-03-21T20:18:29.341Z,95035.34
2018-03-21T20:20:57.754Z,95030.97
2018-03-21T20:23:26.236Z,95047.52
2018-03-21T20:25:54.664Z,95044.14
2018-03-21T20:28:23.056Z,95020.77
2018-03-21T20:30:51.472Z,95038.48
2018-03-21T20:33:19.865Z,95033.14
2018-03-21T20:35:49.068Z,95042.53
2018-03-21T20:38:17.441Z,95050.47
2018-03-21T20:40:45.832Z,95055.78
2018-03-21T20:43:14.262Z,95034.89
2018-03-21T20:45:42.677Z,95046.02
2018-03-21T20:48:11.098Z,95026.70
2018-03-21T20:50:39.508Z,95046.45
2018-03-21T20:53:07.929Z,95030.03
2018-03-21T20:55:36.304Z,95044.36
2018-03-21T20:58:04.775Z,95044.77
2018-03-21T21:00:33.237Z,95010.14
2018-03-21T21:03:01.610Z,95044.66
2018-03-21T21:05:30.079Z,95053.28
2018-03-21T21:07:58.473Z,95026.44
2018-03-21T21:10:26.887Z,95040.45
2018-03-21T21:12:55.296Z,95038.19
2018-03-21T21:15:23.713Z,95047.66
2018-03-21T21:17:52.116Z,95043.51
2018-03-21T21:20:20.505Z,95047.17
2018-03-21T21:22:48.947Z,95053.91
2018-03-21T21:25:17.389Z,95061.66
2018-03-21T21:27:45.772Z,95072.23
2018-03-21T21:30:14.193Z,95075.97
2018-03-21T21:32:42.608Z,95076.73
2018-03-21T21:35:10.993Z,95086.20
2018-03-21T21:37:39.592Z,95075.52
2018-03-21T21:40:07.998Z,95081.48
2018-03-21T21:42:36.436Z,95076.55
2018-03-21T21:45:04.802Z,95068.31
2018-03-21T21:47:33.246Z,95071.91
2018-03-21T21:50:01.679Z,95071.72
2018-03-21T21:52:30.089Z,95070.25
2018-03-21T21:54:58.587Z,95069.67
2018-03-21T21:57:27.052Z,95036.47
2018-03-21T21:59:55.469Z,95057.64
2018-03-21T22:02:23.941Z,95068.06
2018-03-21T22:04:52.280Z,95072.38
2018-03-21T22:07:20.657Z,95074.76
2018-03-21T22:09:49.079Z,95080.06
2018-03-21T22:12:23.080Z,95068.10
2018-03-21T22:14:51.450Z,95064.30
2018-03-21T22:17:19.822Z,95064.27
2018-03-21T22:19:48.239Z,95047.70
2018-03-21T22:22:16.959Z,95058.55
2018-03-21T22:24:45.339Z,94996.58
2018-03-21T22:27:13.767Z,95072.81
2018-03-21T22:29:42.197Z,95086.23
2018-03-21T22:32:10.628Z,95071.54
2018-03-21T22:34:39.042Z,95068.17
2018-03-21T22:37:07.429Z,95060.82
2018-03-21T22:39:36.176Z,95066.56
2018-03-21T22:42:04.610Z,95069.27
2018-03-21T22:44:32.997Z,95062.69
2018-03-21T22:47:01.400Z,95063.19
2018-03-21T22:49:29.818Z,95082.52
2018-03-21T22:51:58.220Z,95069.67
2018-03-21T22:54:26.721Z,95066.78
2018-03-21T22:56:55.040Z,95061.23
2018-03-21T22:59:23.405Z,95089.53
2018-03-21T23:01:51.838Z,95058.17
2018-03-21T23:04:20.281Z,95060.27
2018-03-21T23:06:48.675Z,95063.34
2018-03-21T23:09:17.120Z,95093.19
2018-03-21T23:11:45.513Z,95076.40
2018-03-21T23:14:13.978Z,95071.61
2018-03-21T23:16:42.343Z,95056.03
2018-03-21T23:19:10.768Z,95072.50
2018-03-21T23:21:39.255Z,95067.88
2018-03-21T23:24:07.673Z,95076.00
2018-03-21T23:26:36.075Z,95073.52
2018-03-21T23:29:04.509Z,95070.63
2018-03-21T23:31:32.937Z,95076.14
2018-03-21T23:34:01.353Z,95085.89
2018-03-21T23:36:29.781Z,95084.76
2018-03-21T23:38:58.206Z,95072.56
2018-03-21T23:41:26.666Z,95082.86
2018-03-21T23:43:55.084Z,94971.19
2018-03-21T23:46:23.501Z,95079.11
2018-03-21T23:48:51.905Z,95079.59
2018-03-21T23:51:20.310Z,95073.84
2018-03-21T23:53:48.804Z,95070.16
2018-03-21T23:56:17.221Z,95046.41
2018-03-21T23:58:45.637Z,95067.73
